Time,TemperatureF,DewpointF,PressureIn,WindDirection,WindDirectionDegrees,WindSpeedMPH,WindSpeedGustMPH,Humidity,HourlyPrecipIn,Conditions,Clouds,dailyrainin,SolarRadiationWatts/m^2,SoftwareType,DateUTC
2013-08-23 00:00:00,71.6,69.2,29.92,NNW,347,0.0,1.0,92,0.19,,---,0.19,0.00,VWS V14.01,2013-08-23 04:00:00,
2013-08-23 00:01:00,71.6,69.2,29.92,NNW,347,0.0,0.0,92,0.19,,---,0.00,0.00,VWS V14.01,2013-08-23 04:01:00,
2013-08-23 00:02:00,71.5,69.4,29.92,NNW,347,0.0,0.0,93,0.19,,---,0.00,0.00,VWS V14.01,2013-08-23 04:02:00,
2013-08-23 00:05:00,71.5,69.4,29.92,NNW,347,0.0,0.0,93,0.19,,---,0.00,0.00,VWS V14.01,2013-08-23 04:05:00,
2013-08-23 00:07:00,71.5,69.4,29.92,NNW,347,0.0,1.0,93,0.19,,---,0.00,0.00,VWS V14.01,2013-08-23 04:07:00,
2013-08-23 00:10:00,71.4,69.3,29.92,NNW,347,0.0,1.0,93,0.19,,---,0.00,0.00,VWS V14.01,2013-08-23 04:10:00,
2013-08-23 00:12:00,71.3,69.2,29.92,NNW,347,0.0,1.0,93,0.19,,---,0.00,0.00,VWS V14.01,2013-08-23 04:12:00,
2013-08-23 00:15:00,71.2,69.1,29.92,NNW,347,1.0,1.0,93,0.19,,---,0.00,0.00,VWS V14.01,2013-08-23 04:15:00,
2013-08-23 00:17:00,71.2,69.1,29.92,NNW,345,2.0,2.0,93,0.19,,---,0.00,0.00,VWS V14.01,2013-08-23 04:17:00,
2013-08-23 00:20:00,71.1,69.0,29.92,NNW,344,1.0,2.0,93,0.19,,---,0.00,0.00,VWS V14.01,2013-08-23 04:20:00,
2013-08-23 00:22:00,71.0,68.9,29.92,NNW,343,1.0,2.0,93,0.19,,---,0.00,0.00,VWS V14.01,2013-08-23 04:22:00,
2013-08-23 00:25:00,71.0,68.9,29.92,NNW,343,0.0,2.0,93,0.19,,---,0.00,0.00,VWS V14.01,2013-08-23 04:25:00,
2013-08-23 00:27:00,70.9,69.1,29.92,NNW,343,0.0,1.0,94,0.19,,---,0.00,0.00,VWS V14.01,2013-08-23 04:27:00,
2013-08-23 00:30:00,70.9,69.1,29.92,NNW,343,0.0,1.0,94,0.19,,---,0.00,0.00,VWS V14.01,2013-08-23 04:30:00,
2013-08-23 00:32:00,70.8,69.0,29.92,NNW,343,0.0,1.0,94,0.19,,---,0.00,0.00,VWS V14.01,2013-08-23 04:32:00,
2013-08-23 00:35:00,70.8,69.0,29.92,NNW,337,2.0,3.0,94,0.19,,---,0.00,0.00,VWS V14.01,2013-08-23 04:35:00,
2013-08-23 00:37:00,70.7,68.9,29.92,NW,322,0.0,3.0,94,0.19,,---,0.00,0.00,VWS V14.01,2013-08-23 04:37:00,
2013-08-23 00:40:00,70.7,68.9,29.92,NW,322,0.0,3.0,94,0.19,,---,0.00,0.00,VWS V14.01,2013-08-23 04:40:00,
2013-08-23 00:42:00,70.7,68.9,29.92,NW,316,0.0,2.0,94,0.19,,---,0.00,0.00,VWS V14.01,2013-08-23 04:42:00,
2013-08-23 00:45:00,70.6,68.8,29.92,NW,316,0.0,2.0,94,0.19,,---,0.00,0.00,VWS V14.01,2013-08-23 04:45:00,
2013-08-23 00:47:00,70.6,68.8,29.92,NW,316,0.0,1.0,94,0.10,,---,0.00,0.00,VWS V14.01,2013-08-23 04:47:00,
2013-08-23 00:50:00,70.6,68.8,29.91,NW,316,0.0,1.0,94,0.10,,---,0.00,0.00,VWS V14.01,2013-08-23 04:50:00,
2013-08-23 00:52:00,70.6,68.8,29.92,NW,316,0.0,0.0,94,0.02,,---,0.00,0.00,VWS V14.01,2013-08-23 04:52:00,
2013-08-23 00:55:00,70.6,68.8,29.92,NW,316,0.0,1.0,94,0.02,,---,0.00,0.00,VWS V14.01,2013-08-23 04:55:00,
2013-08-23 00:57:00,70.6,68.8,29.92,NW,315,3.0,3.0,94,0.00,,---,0.00,0.00,VWS V14.01,2013-08-23 04:57:00,
2013-08-23 01:00:00,70.6,68.8,29.92,WNW,302,0.0,4.0,94,0.01,,---,0.01,0.00,VWS V14.01,2013-08-23 05:00:00,
2013-08-23 01:02:00,70.5,69.0,29.93,WNW,286,5.0,5.0,95,0.02,,---,0.02,0.00,VWS V14.01,2013-08-23 05:02:00,
2013-08-23 01:05:00,70.4,68.9,29.93,West,277,4.0,5.0,95,0.07,,---,0.07,0.00,VWS V14.01,2013-08-23 05:05:00,
2013-08-23 01:07:00,70.3,68.8,29.93,WSW,254,9.0,10.0,95,0.21,,---,0.21,0.00,VWS V14.01,2013-08-23 05:07:00,
2013-08-23 01:10:00,70.3,68.8,29.93,SW,231,10.0,11.0,95,0.33,,---,0.33,0.00,VWS V14.01,2013-08-23 05:10:00,
2013-08-23 01:12:00,70.2,68.7,29.93,WSW,244,6.0,19.0,95,0.45,,---,0.45,0.00,VWS V14.01,2013-08-23 05:12:00,
2013-08-23 01:15:00,70.1,68.6,29.94,WSW,256,16.0,19.0,95,0.56,,---,0.56,0.00,VWS V14.01,2013-08-23 05:15:00,
2013-08-23 01:17:00,69.9,68.4,29.94,WSW,242,14.0,18.0,95,0.70,,---,0.70,0.00,VWS V14.01,2013-08-23 05:17:00,
2013-08-23 01:20:00,69.8,68.3,29.95,West,270,6.0,18.0,95,0.85,,---,0.85,0.00,VWS V14.01,2013-08-23 05:20:00,
2013-08-23 01:22:00,69.6,68.1,29.96,WSW,256,14.0,17.0,95,1.07,,---,1.07,0.00,VWS V14.01,2013-08-23 05:22:00,
2013-08-23 01:25:00,69.2,67.4,29.96,SW,229,10.0,22.0,94,1.24,,---,1.24,0.00,VWS V14.01,2013-08-23 05:25:00,
2013-08-23 01:27:00,68.5,66.7,29.95,South,178,6.0,11.0,94,1.42,,---,1.42,0.00,VWS V14.01,2013-08-23 05:27:00,
2013-08-23 01:30:00,68.2,66.4,29.94,SSE,158,0.0,11.0,94,1.48,,---,1.48,0.00,VWS V14.01,2013-08-23 05:30:00,
2013-08-23 01:32:00,67.9,66.1,29.94,South,169,0.0,5.0,94,1.54,,---,1.54,0.00,VWS V14.01,2013-08-23 05:32:00,
2013-08-23 01:35:00,67.9,66.4,29.94,South,169,0.0,5.0,95,1.55,,---,1.55,0.00,VWS V14.01,2013-08-23 05:35:00,
2013-08-23 01:37:00,67.8,66.3,29.94,South,169,0.0,0.0,95,1.56,,---,1.56,0.00,VWS V14.01,2013-08-23 05:37:00,
2013-08-23 01:40:00,67.8,66.3,29.95,South,169,0.0,0.0,95,1.57,,---,1.57,0.00,VWS V14.01,2013-08-23 05:40:00,
2013-08-23 01:42:00,67.7,66.2,29.95,South,170,1.0,3.0,95,1.58,,---,1.58,0.00,VWS V14.01,2013-08-23 05:42:00,
2013-08-23 01:45:00,67.6,66.1,29.95,NE,45,4.0,5.0,95,1.58,,---,1.58,0.00,VWS V14.01,2013-08-23 05:45:00,
2013-08-23 01:47:00,67.5,66.0,29.94,NE,36,0.0,4.0,95,1.59,,---,1.59,0.00,VWS V14.01,2013-08-23 05:47:00,
2013-08-23 01:50:00,67.4,65.9,29.95,NNE,22,3.0,4.0,95,1.60,,---,1.60,0.00,VWS V14.01,2013-08-23 05:50:00,
2013-08-23 01:52:00,67.2,65.7,29.95,NNE,20,1.0,3.0,95,1.61,,---,1.61,0.00,VWS V14.01,2013-08-23 05:52:00,
2013-08-23 01:55:00,67.1,65.6,29.95,NNE,19,0.0,3.0,95,1.63,,---,1.63,0.00,VWS V14.01,2013-08-23 05:55:00,
2013-08-23 01:57:00,67.1,65.9,29.95,North,5,0.0,3.0,96,1.67,,---,1.67,0.00,VWS V14.01,2013-08-23 05:57:00,
2013-08-23 02:00:00,67.1,65.9,29.95,North,5,0.0,3.0,96,1.68,,---,1.68,0.00,VWS V14.01,2013-08-23 06:00:00,
2013-08-23 02:03:00,67.2,66.0,29.95,North,5,0.0,3.0,96,1.70,,---,1.71,0.00,VWS V14.01,2013-08-23 06:03:00,
2013-08-23 02:05:00,67.2,66.0,29.95,North,5,0.0,3.0,96,1.71,,---,1.72,0.00,VWS V14.01,2013-08-23 06:05:00,
2013-08-23 02:08:00,67.4,66.2,29.95,North,5,0.0,1.0,96,1.67,,---,1.74,0.00,VWS V14.01,2013-08-23 06:08:00,
2013-08-23 02:10:00,67.5,66.3,29.95,North,5,0.0,1.0,96,1.68,,---,1.75,0.00,VWS V14.01,2013-08-23 06:10:00,
2013-08-23 02:13:00,67.6,66.4,29.94,East,79,3.0,5.0,96,1.49,,---,1.82,0.00,VWS V14.01,2013-08-23 06:13:00,
2013-08-23 02:15:00,67.6,66.4,29.94,ENE,78,4.0,5.0,96,1.53,,---,1.86,0.00,VWS V14.01,2013-08-23 06:15:00,
2013-08-23 02:18:00,67.7,66.8,29.93,ENE,75,3.0,5.0,97,1.34,,---,1.90,0.00,VWS V14.01,2013-08-23 06:18:00,
2013-08-23 02:20:00,67.7,66.8,29.93,ENE,73,2.0,5.0,97,1.34,,---,1.90,0.00,VWS V14.01,2013-08-23 06:20:00,
2013-08-23 02:23:00,67.7,66.8,29.93,ENE,76,5.0,6.0,97,1.05,,---,1.90,0.00,VWS V14.01,2013-08-23 06:23:00,
2013-08-23 02:25:00,67.8,66.9,29.93,East,82,1.0,6.0,97,1.05,,---,1.90,0.00,VWS V14.01,2013-08-23 06:25:00,
2013-08-23 02:28:00,67.8,66.9,29.93,East,82,0.0,1.0,97,0.66,,---,1.90,0.00,VWS V14.01,2013-08-23 06:28:00,
2013-08-23 02:30:00,67.8,66.9,29.94,East,82,0.0,1.0,97,0.66,,---,1.90,0.00,VWS V14.01,2013-08-23 06:30:00,
2013-08-23 02:33:00,67.7,66.8,29.93,East,82,0.0,1.0,97,0.42,,---,1.90,0.00,VWS V14.01,2013-08-23 06:33:00,
2013-08-23 02:35:00,67.7,66.8,29.93,East,82,0.0,1.0,97,0.42,,---,1.90,0.00,VWS V14.01,2013-08-23 06:35:00,
2013-08-23 02:38:00,67.7,66.5,29.93,East,82,0.0,1.0,96,0.35,,---,1.90,0.00,VWS V14.01,2013-08-23 06:38:00,
2013-08-23 02:40:00,67.6,66.4,29.93,East,82,0.0,1.0,96,0.35,,---,1.90,0.00,VWS V14.01,2013-08-23 06:40:00,
2013-08-23 02:43:00,67.6,66.4,29.92,East,82,0.0,0.0,96,0.33,,---,1.90,0.00,VWS V14.01,2013-08-23 06:43:00,
2013-08-23 02:45:00,67.5,66.3,29.92,East,82,0.0,0.0,96,0.33,,---,1.90,0.00,VWS V14.01,2013-08-23 06:45:00,
2013-08-23 02:48:00,67.4,66.5,29.92,East,82,0.0,0.0,97,0.32,,---,1.90,0.00,VWS V14.01,2013-08-23 06:48:00,
2013-08-23 02:50:00,67.5,66.6,29.92,East,82,0.0,0.0,97,0.32,,---,1.90,0.00,VWS V14.01,2013-08-23 06:50:00,
2013-08-23 02:53:00,67.4,66.5,29.92,East,82,0.0,0.0,97,0.30,,---,1.90,0.00,VWS V14.01,2013-08-23 06:53:00,
2013-08-23 02:55:00,67.4,66.5,29.92,East,82,0.0,0.0,97,0.30,,---,1.90,0.00,VWS V14.01,2013-08-23 06:55:00,
2013-08-23 02:58:00,67.4,66.5,29.92,East,82,0.0,1.0,97,0.27,,---,1.90,0.00,VWS V14.01,2013-08-23 06:58:00,
2013-08-23 03:00:00,67.3,66.4,29.92,East,82,0.0,1.0,97,0.27,,---,1.90,0.00,VWS V14.01,2013-08-23 07:00:00,
2013-08-23 03:03:00,67.2,66.3,29.92,East,82,0.0,1.0,97,0.22,,---,1.90,0.00,VWS V14.01,2013-08-23 07:03:00,
2013-08-23 03:05:00,67.2,66.3,29.92,East,82,0.0,1.0,97,0.22,,---,1.90,0.00,VWS V14.01,2013-08-23 07:05:00,
2013-08-23 03:08:00,67.2,66.3,29.92,East,82,0.0,0.0,97,0.18,,---,1.90,0.00,VWS V14.01,2013-08-23 07:08:00,
2013-08-23 03:10:00,67.1,66.2,29.92,East,82,0.0,0.0,97,0.18,,---,1.90,0.00,VWS V14.01,2013-08-23 07:10:00,
2013-08-23 03:13:00,67.1,66.2,29.93,East,82,0.0,1.0,97,0.15,,---,1.90,0.00,VWS V14.01,2013-08-23 07:13:00,
2013-08-23 03:15:00,67.1,66.2,29.93,East,82,0.0,1.0,97,0.15,,---,1.90,0.00,VWS V14.01,2013-08-23 07:15:00,
2013-08-23 03:18:00,67.0,66.1,29.93,East,82,0.0,0.0,97,0.04,,---,1.90,0.00,VWS V14.01,2013-08-23 07:18:00,
2013-08-23 03:20:00,67.0,66.1,29.93,East,82,0.0,0.0,97,0.04,,---,1.90,0.00,VWS V14.01,2013-08-23 07:20:00,
2013-08-23 03:23:00,66.9,66.0,29.93,East,82,0.0,0.0,97,0.00,,---,1.90,0.00,VWS V14.01,2013-08-23 07:23:00,
2013-08-23 03:25:00,66.9,66.0,29.93,East,82,0.0,0.0,97,0.00,,---,1.90,0.00,VWS V14.01,2013-08-23 07:25:00,
2013-08-23 03:28:00,66.9,66.0,29.93,East,82,0.0,0.0,97,0.00,,---,1.90,0.00,VWS V14.01,2013-08-23 07:28:00,
2013-08-23 03:30:00,66.9,66.0,29.93,East,82,0.0,0.0,97,0.00,,---,1.90,0.00,VWS V14.01,2013-08-23 07:30:00,
2013-08-23 03:33:00,66.9,66.0,29.93,East,82,0.0,0.0,97,0.00,,---,1.90,0.00,VWS V14.01,2013-08-23 07:33:00,
2013-08-23 03:35:00,66.9,66.0,29.93,East,82,0.0,0.0,97,0.00,,---,1.90,0.00,VWS V14.01,2013-08-23 07:35:00,
2013-08-23 03:38:00,66.9,66.0,29.93,East,82,0.0,0.0,97,0.00,,---,1.90,0.00,VWS V14.01,2013-08-23 07:38:00,
2013-08-23 03:40:00,66.9,66.0,29.93,East,82,0.0,0.0,97,0.00,,---,1.90,0.00,VWS V14.01,2013-08-23 07:40:00,
2013-08-23 03:43:00,66.9,66.0,29.93,East,82,0.0,0.0,97,0.00,,---,1.90,0.00,VWS V14.01,2013-08-23 07:43:00,
2013-08-23 03:45:00,66.9,66.0,29.92,East,82,0.0,0.0,97,0.00,,---,1.90,0.00,VWS V14.01,2013-08-23 07:45:00,
2013-08-23 03:48:00,66.8,65.9,29.92,East,82,0.0,0.0,97,0.00,,---,1.90,0.00,VWS V14.01,2013-08-23 07:48:00,
2013-08-23 03:50:00,66.8,65.9,29.92,East,82,0.0,0.0,97,0.00,,---,1.90,0.00,VWS V14.01,2013-08-23 07:50:00,
2013-08-23 03:53:00,66.8,65.9,29.92,East,82,0.0,0.0,97,0.00,,---,1.90,0.00,VWS V14.01,2013-08-23 07:53:00,
2013-08-23 03:55:00,66.8,65.9,29.92,East,82,0.0,0.0,97,0.00,,---,1.90,0.00,VWS V14.01,2013-08-23 07:55:00,
2013-08-23 03:58:00,66.8,65.9,29.93,East,82,1.0,1.0,97,0.00,,---,1.90,0.00,VWS V14.01,2013-08-23 07:58:00,
2013-08-23 04:00:00,66.8,65.9,29.93,East,82,0.0,1.0,97,0.01,,---,1.91,0.00,VWS V14.01,2013-08-23 08:00:00,
2013-08-23 04:03:00,66.8,65.9,29.93,East,82,0.0,0.0,97,0.01,,---,1.91,0.00,VWS V14.01,2013-08-23 08:03:00,
2013-08-23 04:05:00,66.7,65.8,29.93,East,82,0.0,0.0,97,0.01,,---,1.91,0.00,VWS V14.01,2013-08-23 08:05:00,
2013-08-23 04:08:00,66.8,65.9,29.93,East,82,0.0,0.0,97,0.01,,---,1.91,0.00,VWS V14.01,2013-08-23 08:08:00,
2013-08-23 04:10:00,66.8,65.9,29.93,East,82,0.0,0.0,97,0.01,,---,1.91,0.00,VWS V14.01,2013-08-23 08:10:00,
2013-08-23 04:13:00,66.9,66.0,29.93,East,82,0.0,0.0,97,0.01,,---,1.91,0.00,VWS V14.01,2013-08-23 08:13:00,
2013-08-23 04:15:00,66.9,66.0,29.93,East,82,0.0,0.0,97,0.01,,---,1.91,0.00,VWS V14.01,2013-08-23 08:15:00,
2013-08-23 04:18:00,67.0,66.1,29.93,East,82,0.0,0.0,97,0.01,,---,1.91,0.00,VWS V14.01,2013-08-23 08:18:00,
2013-08-23 04:20:00,67.0,66.1,29.93,East,82,0.0,0.0,97,0.01,,---,1.91,0.00,VWS V14.01,2013-08-23 08:20:00,
2013-08-23 04:23:00,67.1,66.2,29.93,East,82,0.0,0.0,97,0.01,,---,1.91,0.00,VWS V14.01,2013-08-23 08:23:00,
2013-08-23 04:25:00,67.1,66.2,29.93,East,82,0.0,2.0,97,0.01,,---,1.91,0.00,VWS V14.01,2013-08-23 08:25:00,
2013-08-23 04:28:00,67.2,66.6,29.93,East,83,0.0,2.0,98,0.01,,---,1.91,0.00,VWS V14.01,2013-08-23 08:28:00,
2013-08-23 04:30:00,67.2,66.6,29.93,East,83,0.0,2.0,98,0.01,,---,1.91,0.00,VWS V14.01,2013-08-23 08:30:00,
2013-08-23 04:33:00,67.3,66.7,29.93,East,83,0.0,1.0,98,0.01,,---,1.91,0.00,VWS V14.01,2013-08-23 08:33:00,
2013-08-23 04:35:00,67.3,66.7,29.93,East,83,0.0,1.0,98,0.01,,---,1.91,0.00,VWS V14.01,2013-08-23 08:35:00,
2013-08-23 04:38:00,67.3,66.7,29.93,East,83,0.0,1.0,98,0.01,,---,1.91,0.00,VWS V14.01,2013-08-23 08:38:00,
2013-08-23 04:40:00,67.3,66.7,29.93,East,84,1.0,1.0,98,0.01,,---,1.91,0.00,VWS V14.01,2013-08-23 08:40:00,
2013-08-23 04:43:00,67.3,66.7,29.93,East,97,0.0,2.0,98,0.01,,---,1.91,0.00,VWS V14.01,2013-08-23 08:43:00,
2013-08-23 04:45:00,67.3,66.7,29.93,East,97,0.0,2.0,98,0.01,,---,1.91,0.00,VWS V14.01,2013-08-23 08:45:00,
2013-08-23 04:48:00,67.3,66.7,29.93,East,97,0.0,1.0,98,0.01,,---,1.91,0.00,VWS V14.01,2013-08-23 08:48:00,
2013-08-23 04:50:00,67.3,66.7,29.93,East,97,0.0,1.0,98,0.01,,---,1.91,0.00,VWS V14.01,2013-08-23 08:50:00,
2013-08-23 04:53:00,67.3,66.7,29.93,East,97,0.0,0.0,98,0.01,,---,1.91,0.00,VWS V14.01,2013-08-23 08:53:00,
2013-08-23 04:55:00,67.3,66.7,29.93,East,97,0.0,0.0,98,0.01,,---,1.91,0.00,VWS V14.01,2013-08-23 08:55:00,
2013-08-23 04:58:00,67.3,66.7,29.93,East,97,0.0,0.0,98,0.01,,---,1.91,0.00,VWS V14.01,2013-08-23 08:58:00,
2013-08-23 05:00:00,67.3,66.7,29.93,East,97,0.0,1.0,98,0.01,,---,1.91,0.00,VWS V14.01,2013-08-23 09:00:00,
2013-08-23 05:03:00,67.3,66.7,29.93,East,97,0.0,0.0,98,0.00,,---,1.91,0.00,VWS V14.01,2013-08-23 09:03:00,
2013-08-23 05:05:00,67.3,66.7,29.93,East,97,0.0,0.0,98,0.00,,---,1.91,0.00,VWS V14.01,2013-08-23 09:05:00,
2013-08-23 05:08:00,67.3,66.7,29.93,East,97,0.0,0.0,98,0.00,,---,1.91,0.00,VWS V14.01,2013-08-23 09:08:00,
2013-08-23 05:10:00,67.3,66.7,29.93,East,97,0.0,0.0,98,0.00,,---,1.91,0.00,VWS V14.01,2013-08-23 09:10:00,
2013-08-23 05:13:00,67.3,66.7,29.93,East,97,0.0,2.0,98,0.00,,---,1.91,0.00,VWS V14.01,2013-08-23 09:13:00,
2013-08-23 05:15:00,67.3,66.7,29.93,East,97,0.0,2.0,98,0.00,,---,1.91,0.00,VWS V14.01,2013-08-23 09:15:00,
2013-08-23 05:18:00,67.4,66.8,29.93,East,98,0.0,1.0,98,0.00,,---,1.91,0.00,VWS V14.01,2013-08-23 09:18:00,
2013-08-23 05:20:00,67.4,66.8,29.93,East,97,0.0,1.0,98,0.00,,---,1.91,0.00,VWS V14.01,2013-08-23 09:20:00,
2013-08-23 05:23:00,67.4,66.8,29.93,East,97,0.0,0.0,98,0.00,,---,1.91,0.00,VWS V14.01,2013-08-23 09:23:00,
2013-08-23 05:25:00,67.4,66.8,29.93,East,98,0.0,0.0,98,0.00,,---,1.91,0.00,VWS V14.01,2013-08-23 09:25:00,
2013-08-23 05:28:00,67.4,66.8,29.93,East,98,0.0,0.0,98,0.00,,---,1.91,0.00,VWS V14.01,2013-08-23 09:28:00,
2013-08-23 05:30:00,67.4,66.8,29.93,East,97,0.0,0.0,98,0.00,,---,1.91,0.00,VWS V14.01,2013-08-23 09:30:00,
2013-08-23 05:33:00,67.5,66.9,29.93,East,97,0.0,0.0,98,0.00,,---,1.91,0.00,VWS V14.01,2013-08-23 09:33:00,
2013-08-23 05:35:00,67.4,66.8,29.93,East,97,0.0,0.0,98,0.00,,---,1.91,0.00,VWS V14.01,2013-08-23 09:35:00,
2013-08-23 05:38:00,67.4,66.8,29.93,East,98,0.0,0.0,98,0.00,,---,1.91,0.00,VWS V14.01,2013-08-23 09:38:00,
2013-08-23 05:40:00,67.4,66.8,29.93,East,97,0.0,0.0,98,0.00,,---,1.91,0.00,VWS V14.01,2013-08-23 09:40:00,
2013-08-23 05:44:00,67.4,66.8,29.94,East,97,0.0,0.0,98,0.00,,---,1.91,0.00,VWS V14.01,2013-08-23 09:44:00,
2013-08-23 05:45:00,67.4,66.8,29.94,East,97,0.0,0.0,98,0.00,,---,1.91,0.00,VWS V14.01,2013-08-23 09:45:00,
2013-08-23 05:49:00,67.4,66.8,29.94,East,97,0.0,0.0,98,0.00,,---,1.91,0.00,VWS V14.01,2013-08-23 09:49:00,
2013-08-23 05:50:00,67.4,66.8,29.94,East,98,0.0,0.0,98,0.00,,---,1.91,0.00,VWS V14.01,2013-08-23 09:50:00,
2013-08-23 05:54:00,67.4,66.8,29.93,East,97,0.0,1.0,98,0.00,,---,1.91,0.00,VWS V14.01,2013-08-23 09:54:00,
2013-08-23 05:55:00,67.4,66.8,29.93,East,97,0.0,1.0,98,0.00,,---,1.91,0.00,VWS V14.01,2013-08-23 09:55:00,
2013-08-23 05:59:00,67.5,66.9,29.93,East,97,0.0,0.0,98,0.00,,---,1.91,0.00,VWS V14.01,2013-08-23 09:59:00,
2013-08-23 06:00:00,67.5,66.9,29.93,East,97,0.0,0.0,98,0.00,,---,1.91,0.00,VWS V14.01,2013-08-23 10:00:00,
2013-08-23 06:04:00,67.5,66.9,29.93,East,97,0.0,0.0,98,0.00,,---,1.91,0.00,VWS V14.01,2013-08-23 10:04:00,
2013-08-23 06:05:00,67.5,66.9,29.93,East,97,0.0,1.0,98,0.00,,---,1.91,0.00,VWS V14.01,2013-08-23 10:05:00,
2013-08-23 06:09:00,67.5,66.9,29.94,East,97,0.0,1.0,98,0.00,,---,1.91,0.00,VWS V14.01,2013-08-23 10:09:00,
2013-08-23 06:10:00,67.6,67.0,29.94,East,97,0.0,1.0,98,0.00,,---,1.91,0.00,VWS V14.01,2013-08-23 10:10:00,
2013-08-23 06:14:00,67.6,67.0,29.94,East,98,0.0,2.0,98,0.00,,---,1.91,0.00,VWS V14.01,2013-08-23 10:14:00,
2013-08-23 06:15:00,67.6,67.0,29.94,East,98,1.0,2.0,98,0.00,,---,1.91,0.00,VWS V14.01,2013-08-23 10:15:00,
2013-08-23 06:19:00,67.6,67.0,29.94,East,98,0.0,1.0,98,0.00,,---,1.91,0.00,VWS V14.01,2013-08-23 10:19:00,
2013-08-23 06:20:00,67.6,67.0,29.94,East,97,0.0,1.0,98,0.00,,---,1.91,0.00,VWS V14.01,2013-08-23 10:20:00,
2013-08-23 06:24:00,67.6,67.0,29.94,East,97,0.0,0.0,98,0.00,,---,1.91,0.00,VWS V14.01,2013-08-23 10:24:00,
2013-08-23 06:25:00,67.6,67.0,29.94,East,97,0.0,0.0,98,0.00,,---,1.91,0.00,VWS V14.01,2013-08-23 10:25:00,
2013-08-23 06:29:00,67.6,67.0,29.94,East,97,0.0,2.0,98,0.00,,---,1.91,0.00,VWS V14.01,2013-08-23 10:29:00,
2013-08-23 06:30:00,67.6,67.0,29.94,East,80,1.0,4.0,98,0.00,,---,1.91,0.00,VWS V14.01,2013-08-23 10:30:00,
2013-08-23 06:34:00,67.7,67.1,29.95,ENE,78,0.0,2.0,98,0.00,,---,1.91,0.00,VWS V14.01,2013-08-23 10:34:00,
2013-08-23 06:35:00,67.7,67.1,29.95,ENE,78,0.0,2.0,98,0.00,,---,1.91,0.00,VWS V14.01,2013-08-23 10:35:00,
2013-08-23 06:39:00,67.8,67.2,29.95,ENE,59,1.0,4.0,98,0.00,,---,1.91,0.00,VWS V14.01,2013-08-23 10:39:00,
2013-08-23 06:40:00,67.8,67.2,29.95,ENE,59,0.0,4.0,98,0.00,,---,1.91,0.00,VWS V14.01,2013-08-23 10:40:00,
2013-08-23 06:44:00,67.9,67.3,29.95,ENE,59,0.0,2.0,98,0.00,,---,1.91,0.00,VWS V14.01,2013-08-23 10:44:00,
2013-08-23 06:45:00,67.9,67.3,29.95,ENE,59,0.0,2.0,98,0.00,,---,1.91,0.00,VWS V14.01,2013-08-23 10:45:00,
2013-08-23 06:49:00,67.9,67.3,29.95,NE,52,0.0,3.0,98,0.00,,---,1.91,0.00,VWS V14.01,2013-08-23 10:49:00,
2013-08-23 06:50:00,67.9,67.3,29.95,NE,52,0.0,3.0,98,0.00,,---,1.91,0.00,VWS V14.01,2013-08-23 10:50:00,
2013-08-23 06:54:00,67.9,67.3,29.95,NNW,346,0.0,6.0,98,0.00,,---,1.91,0.00,VWS V14.01,2013-08-23 10:54:00,
2013-08-23 06:55:00,67.9,67.3,29.95,NNW,346,0.0,6.0,98,0.00,,---,1.91,0.00,VWS V14.01,2013-08-23 10:55:00,
2013-08-23 06:59:00,67.9,67.3,29.96,NNW,346,0.0,1.0,98,0.00,,---,1.91,0.00,VWS V14.01,2013-08-23 10:59:00,
2013-08-23 07:00:00,67.9,67.3,29.96,NNW,346,0.0,2.0,98,0.00,,---,1.91,0.00,VWS V14.01,2013-08-23 11:00:00,
2013-08-23 07:04:00,67.9,67.3,29.96,North,351,0.0,3.0,98,0.00,,---,1.91,0.00,VWS V14.01,2013-08-23 11:04:00,
2013-08-23 07:05:00,67.9,67.3,29.96,North,351,0.0,3.0,98,0.00,,---,1.91,0.00,VWS V14.01,2013-08-23 11:05:00,
2013-08-23 07:09:00,67.9,67.3,29.96,NE,49,2.0,6.0,98,0.00,,---,1.91,0.00,VWS V14.01,2013-08-23 11:09:00,
2013-08-23 07:10:00,67.9,67.3,29.96,NE,43,0.0,6.0,98,0.00,,---,1.91,5.00,VWS V14.01,2013-08-23 11:10:00,
2013-08-23 07:14:00,67.8,67.2,29.97,NE,36,3.0,5.0,98,0.00,,---,1.91,5.00,VWS V14.01,2013-08-23 11:14:00,
2013-08-23 07:15:00,67.7,67.1,29.97,NNE,32,2.0,5.0,98,0.00,,---,1.91,7.00,VWS V14.01,2013-08-23 11:15:00,
2013-08-23 07:19:00,67.5,66.9,29.98,NE,44,5.0,7.0,98,0.00,,---,1.91,11.00,VWS V14.01,2013-08-23 11:19:00,
2013-08-23 07:20:00,67.4,66.8,29.98,NNE,33,4.0,7.0,98,0.00,,---,1.91,11.00,VWS V14.01,2013-08-23 11:20:00,
2013-08-23 07:24:00,67.1,66.2,29.98,NE,55,3.0,7.0,97,0.00,,---,1.91,12.00,VWS V14.01,2013-08-23 11:24:00,
2013-08-23 07:25:00,67.0,66.1,29.98,NE,55,4.0,7.0,97,0.00,,---,1.91,12.00,VWS V14.01,2013-08-23 11:25:00,
2013-08-23 07:29:00,66.7,66.1,29.98,NE,55,2.0,6.0,98,0.00,,---,1.91,16.00,VWS V14.01,2013-08-23 11:29:00,
2013-08-23 07:30:00,66.7,66.1,29.98,NE,42,2.0,6.0,98,0.00,,---,1.91,16.00,VWS V14.01,2013-08-23 11:30:00,
2013-08-23 07:34:00,66.4,65.5,29.98,NNE,30,0.0,4.0,97,0.00,,---,1.91,12.00,VWS V14.01,2013-08-23 11:34:00,
2013-08-23 07:35:00,66.4,65.5,29.98,NNE,31,1.0,4.0,97,0.00,,---,1.91,12.00,VWS V14.01,2013-08-23 11:35:00,
2013-08-23 07:39:00,66.1,65.2,29.98,ENE,66,4.0,6.0,97,0.01,,---,1.92,9.00,VWS V14.01,2013-08-23 11:39:00,
2013-08-23 07:40:00,66.1,65.2,29.98,ENE,65,0.0,6.0,97,0.01,,---,1.92,9.00,VWS V14.01,2013-08-23 11:40:00,
2013-08-23 07:44:00,65.8,64.9,29.98,East,93,0.0,5.0,97,0.01,,---,1.92,18.00,VWS V14.01,2013-08-23 11:44:00,
2013-08-23 07:45:00,65.7,64.8,29.98,East,93,0.0,5.0,97,0.01,,---,1.92,19.00,VWS V14.01,2013-08-23 11:45:00,
2013-08-23 07:49:00,65.5,64.6,29.97,East,90,2.0,4.0,97,0.01,,---,1.92,26.00,VWS V14.01,2013-08-23 11:49:00,
2013-08-23 07:50:00,65.5,64.6,29.97,East,90,3.0,4.0,97,0.01,,---,1.92,26.00,VWS V14.01,2013-08-23 11:50:00,
2013-08-23 07:54:00,65.4,64.5,29.97,East,91,2.0,3.0,97,0.01,,---,1.92,28.00,VWS V14.01,2013-08-23 11:54:00,
2013-08-23 07:55:00,65.4,64.5,29.97,East,91,0.0,3.0,97,0.01,,---,1.92,28.00,VWS V14.01,2013-08-23 11:55:00,
2013-08-23 07:59:00,65.3,64.4,29.97,East,91,1.0,1.0,97,0.01,,---,1.92,32.00,VWS V14.01,2013-08-23 11:59:00,
2013-08-23 08:00:00,65.4,64.8,29.97,East,91,0.0,1.0,98,0.01,,---,1.92,32.00,VWS V14.01,2013-08-23 12:00:00,
2013-08-23 08:04:00,65.3,64.7,29.97,East,91,0.0,2.0,98,0.01,,---,1.92,39.00,VWS V14.01,2013-08-23 12:04:00,
2013-08-23 08:05:00,65.3,64.7,29.97,East,91,0.0,2.0,98,0.01,,---,1.92,39.00,VWS V14.01,2013-08-23 12:05:00,
2013-08-23 08:09:00,65.3,64.7,29.97,East,91,0.0,2.0,98,0.01,,---,1.92,53.00,VWS V14.01,2013-08-23 12:09:00,
2013-08-23 08:10:00,65.3,64.7,29.97,East,91,0.0,2.0,98,0.01,,---,1.92,53.00,VWS V14.01,2013-08-23 12:10:00,
2013-08-23 08:14:00,65.3,64.7,29.97,East,91,0.0,1.0,98,0.01,,---,1.92,67.00,VWS V14.01,2013-08-23 12:14:00,
2013-08-23 08:15:00,65.3,64.7,29.97,East,91,0.0,1.0,98,0.01,,---,1.92,69.00,VWS V14.01,2013-08-23 12:15:00,
2013-08-23 08:19:00,65.3,64.7,29.97,East,91,0.0,0.0,98,0.01,,---,1.92,81.00,VWS V14.01,2013-08-23 12:19:00,
2013-08-23 08:20:00,65.3,64.7,29.97,East,91,1.0,1.0,98,0.01,,---,1.92,83.00,VWS V14.01,2013-08-23 12:20:00,
2013-08-23 08:24:00,65.4,64.8,29.97,East,95,0.0,4.0,98,0.01,,---,1.92,83.00,VWS V14.01,2013-08-23 12:24:00,
2013-08-23 08:25:00,65.4,64.8,29.97,East,94,0.0,4.0,98,0.01,,---,1.92,81.00,VWS V14.01,2013-08-23 12:25:00,
2013-08-23 08:29:00,65.5,64.9,29.97,East,95,0.0,2.0,98,0.01,,---,1.92,81.00,VWS V14.01,2013-08-23 12:29:00,
2013-08-23 08:30:00,65.5,64.9,29.97,East,95,0.0,2.0,98,0.01,,---,1.92,81.00,VWS V14.01,2013-08-23 12:30:00,
2013-08-23 08:34:00,65.5,64.9,29.97,East,95,0.0,0.0,98,0.01,,---,1.92,100.00,VWS V14.01,2013-08-23 12:34:00,
2013-08-23 08:35:00,65.5,64.9,29.97,East,95,0.0,0.0,98,0.01,,---,1.92,100.00,VWS V14.01,2013-08-23 12:35:00,
2013-08-23 08:39:00,65.6,65.0,29.97,East,95,0.0,0.0,98,0.01,,---,1.92,114.00,VWS V14.01,2013-08-23 12:39:00,
2013-08-23 08:40:00,65.6,65.0,29.97,East,95,0.0,0.0,98,0.01,,---,1.92,114.00,VWS V14.01,2013-08-23 12:40:00,
2013-08-23 08:44:00,65.7,65.1,29.97,East,95,0.0,0.0,98,0.00,,---,1.92,116.00,VWS V14.01,2013-08-23 12:44:00,
2013-08-23 08:45:00,65.7,65.1,29.97,East,95,0.0,0.0,98,0.00,,---,1.92,116.00,VWS V14.01,2013-08-23 12:45:00,
2013-08-23 08:49:00,65.8,65.2,29.97,East,95,0.0,1.0,98,0.00,,---,1.92,120.00,VWS V14.01,2013-08-23 12:49:00,
2013-08-23 08:50:00,65.8,65.2,29.97,East,95,0.0,1.0,98,0.00,,---,1.92,120.00,VWS V14.01,2013-08-23 12:50:00,
2013-08-23 08:54:00,66.0,65.4,29.97,East,95,0.0,0.0,98,0.00,,---,1.92,121.00,VWS V14.01,2013-08-23 12:54:00,
2013-08-23 08:55:00,66.0,65.4,29.97,East,95,0.0,0.0,98,0.00,,---,1.92,121.00,VWS V14.01,2013-08-23 12:55:00,
2013-08-23 08:59:00,66.1,65.5,29.97,East,95,0.0,0.0,98,0.00,,---,1.92,132.00,VWS V14.01,2013-08-23 12:59:00,
2013-08-23 09:00:00,66.1,65.5,29.97,East,95,0.0,0.0,98,0.00,,---,1.92,134.00,VWS V14.01,2013-08-23 13:00:00,
2013-08-23 09:04:00,66.2,65.6,29.97,East,95,0.0,0.0,98,0.00,,---,1.92,148.00,VWS V14.01,2013-08-23 13:04:00,
2013-08-23 09:05:00,66.2,65.6,29.97,East,95,0.0,0.0,98,0.00,,---,1.92,148.00,VWS V14.01,2013-08-23 13:05:00,
2013-08-23 09:09:00,66.1,65.5,29.98,East,95,0.0,0.0,98,0.00,,---,1.92,160.00,VWS V14.01,2013-08-23 13:09:00,
2013-08-23 09:10:00,66.1,65.5,29.98,East,95,0.0,0.0,98,0.00,,---,1.92,160.00,VWS V14.01,2013-08-23 13:10:00,
2013-08-23 09:14:00,66.2,65.6,29.98,East,92,0.0,2.0,98,0.00,,---,1.92,167.00,VWS V14.01,2013-08-23 13:14:00,
2013-08-23 09:15:00,66.2,65.6,29.98,East,92,0.0,2.0,98,0.00,,---,1.92,167.00,VWS V14.01,2013-08-23 13:15:00,
2013-08-23 09:19:00,66.5,65.9,29.98,East,92,3.0,3.0,98,0.00,,---,1.92,163.00,VWS V14.01,2013-08-23 13:19:00,
2013-08-23 09:20:00,66.5,65.9,29.98,East,92,3.0,3.0,98,0.00,,---,1.92,163.00,VWS V14.01,2013-08-23 13:20:00,
2013-08-23 09:24:00,66.6,66.0,29.98,NE,42,0.0,4.0,98,0.00,,---,1.92,153.00,VWS V14.01,2013-08-23 13:24:00,
2013-08-23 09:25:00,66.6,66.0,29.98,NE,42,0.0,4.0,98,0.00,,---,1.92,153.00,VWS V14.01,2013-08-23 13:25:00,
2013-08-23 09:29:00,66.9,66.3,29.98,NE,40,1.0,3.0,98,0.00,,---,1.92,202.00,VWS V14.01,2013-08-23 13:29:00,
2013-08-23 09:30:00,66.9,66.3,29.98,NE,40,1.0,3.0,98,0.00,,---,1.92,202.00,VWS V14.01,2013-08-23 13:30:00,
2013-08-23 09:34:00,67.2,66.6,29.98,NE,39,0.0,3.0,98,0.00,,---,1.92,193.00,VWS V14.01,2013-08-23 13:34:00,
2013-08-23 09:35:00,67.2,66.6,29.98,NE,39,0.0,3.0,98,0.00,,---,1.92,193.00,VWS V14.01,2013-08-23 13:35:00,
2013-08-23 09:39:00,67.4,66.8,29.98,North,360,2.0,4.0,98,0.00,,---,1.92,146.00,VWS V14.01,2013-08-23 13:39:00,
2013-08-23 09:40:00,67.4,66.8,29.98,North,360,2.0,4.0,98,0.00,,---,1.92,146.00,VWS V14.01,2013-08-23 13:40:00,
2013-08-23 09:44:00,67.6,67.0,29.98,North,355,1.0,3.0,98,0.00,,---,1.92,214.00,VWS V14.01,2013-08-23 13:44:00,
2013-08-23 09:45:00,67.6,67.0,29.98,North,355,1.0,3.0,98,0.00,,---,1.92,214.00,VWS V14.01,2013-08-23 13:45:00,
2013-08-23 09:49:00,67.7,67.1,29.98,North,355,0.0,3.0,98,0.00,,---,1.92,445.00,VWS V14.01,2013-08-23 13:49:00,
2013-08-23 09:50:00,67.7,67.1,29.98,North,355,0.0,3.0,98,0.00,,---,1.92,445.00,VWS V14.01,2013-08-23 13:50:00,
2013-08-23 09:55:00,68.2,67.6,29.98,NNE,18,0.0,0.0,98,0.00,,---,1.92,497.00,VWS V14.01,2013-08-23 13:55:00,
2013-08-23 10:00:00,68.4,67.8,29.98,NNE,19,0.0,0.0,98,0.00,,---,1.92,512.00,VWS V14.01,2013-08-23 14:00:00,
2013-08-23 10:05:00,68.4,67.8,29.98,NE,36,1.0,2.0,98,0.00,,---,1.92,522.00,VWS V14.01,2013-08-23 14:05:00,
2013-08-23 10:10:00,68.6,68.0,29.99,NNE,17,0.0,1.0,98,0.00,,---,1.92,534.00,VWS V14.01,2013-08-23 14:10:00,
2013-08-23 10:15:00,69.0,68.4,29.99,NNE,27,1.0,1.0,98,0.00,,---,1.92,548.00,VWS V14.01,2013-08-23 14:15:00,
2013-08-23 10:20:00,69.3,68.7,29.99,NNE,16,0.0,0.0,98,0.00,,---,1.92,563.00,VWS V14.01,2013-08-23 14:20:00,
2013-08-23 10:25:00,69.7,68.8,29.99,NNE,17,2.0,2.0,97,0.00,,---,1.92,578.00,VWS V14.01,2013-08-23 14:25:00,
2013-08-23 10:30:00,70.1,68.9,29.99,NNW,348,0.0,6.0,96,0.00,,---,1.92,591.00,VWS V14.01,2013-08-23 14:30:00,
2013-08-23 10:35:00,70.4,68.9,29.99,NW,306,3.0,7.0,95,0.00,,---,1.92,626.00,VWS V14.01,2013-08-23 14:35:00,
2013-08-23 10:40:00,70.9,69.1,29.99,North,5,2.0,6.0,94,0.00,,---,1.92,661.00,VWS V14.01,2013-08-23 14:40:00,
2013-08-23 10:45:00,71.5,69.1,29.99,NNE,23,4.0,4.0,92,0.00,,---,1.92,664.00,VWS V14.01,2013-08-23 14:45:00,
2013-08-23 10:50:00,72.2,69.4,29.99,NNE,28,1.0,3.0,91,0.00,,---,1.92,605.00,VWS V14.01,2013-08-23 14:50:00,
2013-08-23 10:55:00,72.6,69.2,29.99,NNE,26,5.0,5.0,89,0.00,,---,1.92,747.00,VWS V14.01,2013-08-23 14:55:00,
2013-08-23 11:00:00,72.8,68.7,29.99,NNW,336,3.0,7.0,87,0.00,,---,1.92,622.00,VWS V14.01,2013-08-23 15:00:00,
2013-08-23 11:05:00,73.1,69.3,29.99,NNW,342,4.0,4.0,88,0.00,,---,1.92,673.00,VWS V14.01,2013-08-23 15:05:00,
2013-08-23 11:10:00,73.5,69.1,29.99,East,81,3.0,7.0,86,0.00,,---,1.92,714.00,VWS V14.01,2013-08-23 15:10:00,
2013-08-23 11:15:00,73.9,69.4,30.00,NE,34,1.0,3.0,86,0.00,,---,1.92,745.00,VWS V14.01,2013-08-23 15:15:00,
2013-08-23 11:20:00,74.1,69.3,29.99,NNE,20,3.0,5.0,85,0.00,,---,1.92,754.00,VWS V14.01,2013-08-23 15:20:00,
2013-08-23 11:25:00,74.4,69.6,29.99,NW,318,5.0,5.0,85,0.00,,---,1.92,721.00,VWS V14.01,2013-08-23 15:25:00,
2013-08-23 11:30:00,74.7,69.9,29.99,North,360,1.0,2.0,85,0.00,,---,1.92,591.00,VWS V14.01,2013-08-23 15:30:00,
2013-08-23 11:35:00,74.9,70.1,29.99,NNW,342,3.0,4.0,85,0.00,,---,1.92,788.00,VWS V14.01,2013-08-23 15:35:00,
2013-08-23 11:40:00,75.1,69.6,29.99,NNW,342,1.0,5.0,83,0.00,,---,1.92,802.00,VWS V14.01,2013-08-23 15:40:00,
2013-08-23 11:45:00,75.3,69.4,29.99,NNE,20,1.0,4.0,82,0.00,,---,1.92,770.00,VWS V14.01,2013-08-23 15:45:00,
2013-08-23 11:50:00,75.6,69.7,29.99,NNW,340,2.0,3.0,82,0.00,,---,1.92,766.00,VWS V14.01,2013-08-23 15:50:00,
2013-08-23 11:55:00,76.1,70.2,29.99,NNW,342,0.0,3.0,82,0.00,,---,1.92,793.00,VWS V14.01,2013-08-23 15:55:00,
2013-08-23 12:00:00,76.7,70.4,29.99,NNE,22,0.0,4.0,81,0.00,,---,1.92,789.00,VWS V14.01,2013-08-23 16:00:00,
2013-08-23 12:05:00,76.9,70.3,29.99,ENE,63,1.0,4.0,80,0.00,,---,1.92,784.00,VWS V14.01,2013-08-23 16:05:00,
2013-08-23 12:10:00,77.3,70.7,29.99,North,355,3.0,4.0,80,0.00,,---,1.92,798.00,VWS V14.01,2013-08-23 16:10:00,
2013-08-23 12:15:00,77.5,70.5,29.99,North,5,1.0,2.0,79,0.00,,---,1.92,810.00,VWS V14.01,2013-08-23 16:15:00,
2013-08-23 12:20:00,77.7,69.9,29.99,NE,55,2.0,5.0,77,0.00,,---,1.92,805.00,VWS V14.01,2013-08-23 16:20:00,
2013-08-23 12:25:00,78.0,69.4,29.99,NNW,329,3.0,5.0,75,0.00,,---,1.92,854.00,VWS V14.01,2013-08-23 16:25:00,
2013-08-23 12:30:00,78.3,69.7,29.98,NNW,344,4.0,5.0,75,0.00,,---,1.92,847.00,VWS V14.01,2013-08-23 16:30:00,
2013-08-23 12:35:00,78.5,69.9,29.98,NNW,346,4.0,6.0,75,0.00,,---,1.92,842.00,VWS V14.01,2013-08-23 16:35:00,
2013-08-23 12:40:00,78.6,70.0,29.98,NNW,344,4.0,6.0,75,0.00,,---,1.92,867.00,VWS V14.01,2013-08-23 16:40:00,
2013-08-23 12:41:00,78.7,69.7,29.98,NNW,342,2.0,4.0,74,0.00,,---,1.92,867.00,VWS V14.01,2013-08-23 16:41:00,
2013-08-23 12:45:00,78.9,69.5,29.98,NNE,24,0.0,5.0,73,0.00,,---,1.92,877.00,VWS V14.01,2013-08-23 16:45:00,
2013-08-23 12:46:00,79.0,69.6,29.98,NNE,25,0.0,3.0,73,0.00,,---,1.92,872.00,VWS V14.01,2013-08-23 16:46:00,
2013-08-23 12:50:00,79.4,69.6,29.98,NE,42,0.0,3.0,72,0.00,,---,1.92,861.00,VWS V14.01,2013-08-23 16:50:00,
2013-08-23 12:55:00,79.7,69.5,29.98,NE,36,5.0,5.0,71,0.00,,---,1.92,847.00,VWS V14.01,2013-08-23 16:55:00,
2013-08-23 12:56:00,79.7,68.6,29.98,NNE,24,2.0,6.0,69,0.00,,---,1.92,870.00,VWS V14.01,2013-08-23 16:56:00,
2013-08-23 13:00:00,79.8,69.2,29.98,North,11,2.0,6.0,70,0.00,,---,1.92,865.00,VWS V14.01,2013-08-23 17:00:00,
2013-08-23 13:01:00,79.8,69.2,29.98,North,355,2.0,4.0,70,0.00,,---,1.92,907.00,VWS V14.01,2013-08-23 17:01:00,
2013-08-23 13:05:00,80.1,70.3,29.98,NE,46,1.0,7.0,72,0.00,,---,1.92,888.00,VWS V14.01,2013-08-23 17:05:00,
2013-08-23 13:06:00,80.2,69.9,29.98,NE,35,4.0,5.0,71,0.00,,---,1.92,881.00,VWS V14.01,2013-08-23 17:06:00,
2013-08-23 13:10:00,80.3,68.3,29.98,North,5,2.0,5.0,67,0.00,,---,1.92,956.00,VWS V14.01,2013-08-23 17:10:00,
2013-08-23 13:11:00,80.3,68.3,29.98,North,5,3.0,5.0,67,0.00,,---,1.92,967.00,VWS V14.01,2013-08-23 17:11:00,
2013-08-23 13:15:00,80.4,68.4,29.98,NNE,26,0.0,6.0,67,0.00,,---,1.92,925.00,VWS V14.01,2013-08-23 17:15:00,
2013-08-23 13:16:00,80.4,68.0,29.98,NNE,30,0.0,3.0,66,0.00,,---,1.92,916.00,VWS V14.01,2013-08-23 17:16:00,
2013-08-23 13:20:00,80.5,68.1,29.98,NNE,15,0.0,5.0,66,0.00,,---,1.92,970.00,VWS V14.01,2013-08-23 17:20:00,
2013-08-23 13:21:00,80.5,68.1,29.98,North,11,3.0,4.0,66,0.00,,---,1.92,951.00,VWS V14.01,2013-08-23 17:21:00,
2013-08-23 13:25:00,80.7,68.3,29.98,NNW,344,4.0,6.0,66,0.00,,---,1.92,974.00,VWS V14.01,2013-08-23 17:25:00,
2013-08-23 13:26:00,80.7,68.7,29.98,NNE,16,2.0,4.0,67,0.00,,---,1.92,974.00,VWS V14.01,2013-08-23 17:26:00,
2013-08-23 13:30:00,80.8,68.4,29.98,NNE,13,1.0,6.0,66,0.00,,---,1.92,956.00,VWS V14.01,2013-08-23 17:30:00,
2013-08-23 13:31:00,80.8,69.3,29.98,NNE,21,3.0,4.0,68,0.00,,---,1.92,963.00,VWS V14.01,2013-08-23 17:31:00,
2013-08-23 13:35:00,81.0,69.0,29.98,NE,55,2.0,4.0,67,0.00,,---,1.92,963.00,VWS V14.01,2013-08-23 17:35:00,
2013-08-23 13:36:00,81.0,69.4,29.98,ENE,61,1.0,3.0,68,0.00,,---,1.92,1018.00,VWS V14.01,2013-08-23 17:36:00,
2013-08-23 13:40:00,81.0,68.1,29.98,NNE,14,3.0,5.0,65,0.00,,---,1.92,933.00,VWS V14.01,2013-08-23 17:40:00,
2013-08-23 13:41:00,81.0,67.7,29.98,NNE,14,2.0,3.0,64,0.00,,---,1.92,937.00,VWS V14.01,2013-08-23 17:41:00,
2013-08-23 13:45:00,81.1,67.8,29.97,North,355,0.0,4.0,64,0.00,,---,1.92,963.00,VWS V14.01,2013-08-23 17:45:00,
2013-08-23 13:46:00,81.2,68.3,29.98,NNE,33,5.0,5.0,65,0.00,,---,1.92,181.00,VWS V14.01,2013-08-23 17:46:00,
2013-08-23 13:50:00,81.1,69.1,29.97,NE,36,1.0,5.0,67,0.00,,---,1.92,918.00,VWS V14.01,2013-08-23 17:50:00,
2013-08-23 13:51:00,81.1,68.2,29.98,NE,40,2.0,5.0,65,0.00,,---,1.92,933.00,VWS V14.01,2013-08-23 17:51:00,
2013-08-23 13:55:00,81.1,68.7,29.98,NNE,26,1.0,6.0,66,0.00,,---,1.92,925.00,VWS V14.01,2013-08-23 17:55:00,
2013-08-23 13:56:00,81.1,68.2,29.98,North,360,4.0,4.0,65,0.00,,---,1.92,925.00,VWS V14.01,2013-08-23 17:56:00,
2013-08-23 14:00:00,81.2,68.3,29.98,NNE,32,3.0,6.0,65,0.00,,---,1.92,904.00,VWS V14.01,2013-08-23 18:00:00,
2013-08-23 14:01:00,81.2,67.9,29.98,NE,46,1.0,3.0,64,0.00,,---,1.92,907.00,VWS V14.01,2013-08-23 18:01:00,
2013-08-23 14:05:00,81.4,67.6,29.98,NE,38,3.0,5.0,63,0.00,,---,1.92,926.00,VWS V14.01,2013-08-23 18:05:00,
2013-08-23 14:06:00,81.4,68.1,29.98,NNE,28,3.0,5.0,64,0.00,,---,1.92,928.00,VWS V14.01,2013-08-23 18:06:00,
2013-08-23 14:10:00,81.6,67.8,29.98,North,5,3.0,5.0,63,0.00,,---,1.92,926.00,VWS V14.01,2013-08-23 18:10:00,
2013-08-23 14:11:00,81.7,67.9,29.98,NNW,347,0.0,3.0,63,0.00,,---,1.92,932.00,VWS V14.01,2013-08-23 18:11:00,
2013-08-23 14:15:00,81.9,67.6,29.98,ENE,58,3.0,4.0,62,0.00,,---,1.92,967.00,VWS V14.01,2013-08-23 18:15:00,
2013-08-23 14:16:00,81.9,68.1,29.98,ENE,63,1.0,3.0,63,0.00,,---,1.92,267.00,VWS V14.01,2013-08-23 18:16:00,
2013-08-23 14:20:00,82.0,67.2,29.98,NE,34,4.0,6.0,61,0.00,,---,1.92,956.00,VWS V14.01,2013-08-23 18:20:00,
2013-08-23 14:21:00,82.0,68.2,29.98,ENE,61,0.0,4.0,63,0.00,,---,1.92,956.00,VWS V14.01,2013-08-23 18:21:00,
2013-08-23 14:25:00,82.1,68.7,29.98,East,80,1.0,4.0,64,0.00,,---,1.92,199.00,VWS V14.01,2013-08-23 18:25:00,
2013-08-23 14:26:00,82.0,68.6,29.98,East,80,0.0,2.0,64,0.00,,---,1.92,227.00,VWS V14.01,2013-08-23 18:26:00,
2013-08-23 14:30:00,82.0,68.2,29.98,North,9,0.0,4.0,63,0.00,,---,1.92,1020.00,VWS V14.01,2013-08-23 18:30:00,
2013-08-23 14:31:00,82.0,68.6,29.98,NNW,346,0.0,4.0,64,0.00,,---,1.92,984.00,VWS V14.01,2013-08-23 18:31:00,
2013-08-23 14:35:00,82.0,68.2,29.98,NE,36,0.0,7.0,63,0.00,,---,1.92,984.00,VWS V14.01,2013-08-23 18:35:00,
2013-08-23 14:36:00,82.0,68.2,29.98,NE,47,0.0,5.0,63,0.00,,---,1.92,963.00,VWS V14.01,2013-08-23 18:36:00,
2013-08-23 14:40:00,82.0,69.1,29.98,North,5,3.0,5.0,65,0.00,,---,1.92,933.00,VWS V14.01,2013-08-23 18:40:00,
2013-08-23 14:41:00,82.1,67.8,29.98,NE,36,2.0,4.0,62,0.00,,---,1.92,935.00,VWS V14.01,2013-08-23 18:41:00,
2013-08-23 14:45:00,82.3,67.5,29.98,North,355,2.0,4.0,61,0.00,,---,1.92,905.00,VWS V14.01,2013-08-23 18:45:00,
2013-08-23 14:46:00,82.3,68.0,29.97,NNW,336,4.0,5.0,62,0.00,,---,1.92,907.00,VWS V14.01,2013-08-23 18:46:00,
2013-08-23 14:50:00,82.5,68.2,29.97,North,355,1.0,9.0,62,0.00,,---,1.92,893.00,VWS V14.01,2013-08-23 18:50:00,
2013-08-23 14:51:00,82.5,68.6,29.97,North,355,0.0,2.0,63,0.00,,---,1.92,896.00,VWS V14.01,2013-08-23 18:51:00,
2013-08-23 14:55:00,82.6,67.8,29.97,NNE,24,2.0,6.0,61,0.00,,---,1.92,893.00,VWS V14.01,2013-08-23 18:55:00,
2013-08-23 14:56:00,82.7,68.4,29.97,NE,38,4.0,4.0,62,0.00,,---,1.92,884.00,VWS V14.01,2013-08-23 18:56:00,
2013-08-23 15:00:00,82.7,68.4,29.97,NE,49,3.0,6.0,62,0.00,,---,1.92,874.00,VWS V14.01,2013-08-23 19:00:00,
2013-08-23 15:01:00,82.6,67.3,29.97,NE,38,1.0,5.0,60,0.00,,---,1.92,870.00,VWS V14.01,2013-08-23 19:01:00,
2013-08-23 15:05:00,82.6,69.2,29.97,NNE,21,1.0,5.0,64,0.00,,---,1.92,905.00,VWS V14.01,2013-08-23 19:05:00,
2013-08-23 15:06:00,82.7,68.4,29.97,NNE,18,0.0,4.0,62,0.00,,---,1.92,919.00,VWS V14.01,2013-08-23 19:06:00,
2013-08-23 15:10:00,82.8,68.5,29.97,NNE,28,4.0,6.0,62,0.00,,---,1.92,907.00,VWS V14.01,2013-08-23 19:10:00,
2013-08-23 15:11:00,82.8,68.0,29.97,East,84,3.0,5.0,61,0.00,,---,1.92,907.00,VWS V14.01,2013-08-23 19:11:00,
2013-08-23 15:15:00,82.6,67.3,29.97,NE,56,2.0,6.0,60,0.00,,---,1.92,169.00,VWS V14.01,2013-08-23 19:15:00,
2013-08-23 15:16:00,82.5,65.8,29.97,ENE,71,2.0,4.0,57,0.00,,---,1.92,149.00,VWS V14.01,2013-08-23 19:16:00,
2013-08-23 15:20:00,82.1,65.4,29.97,ENE,78,2.0,4.0,57,0.00,,---,1.92,134.00,VWS V14.01,2013-08-23 19:20:00,
2013-08-23 15:21:00,82.0,66.8,29.97,ENE,78,2.0,2.0,60,0.00,,---,1.92,134.00,VWS V14.01,2013-08-23 19:21:00,
2013-08-23 15:25:00,81.9,67.6,29.97,North,355,4.0,4.0,62,0.00,,---,1.92,884.00,VWS V14.01,2013-08-23 19:25:00,
2013-08-23 15:26:00,81.9,67.1,29.97,NW,326,2.0,4.0,61,0.00,,---,1.92,889.00,VWS V14.01,2013-08-23 19:26:00,
2013-08-23 15:30:00,82.1,67.8,29.97,NNE,27,4.0,4.0,62,0.00,,---,1.92,863.00,VWS V14.01,2013-08-23 19:30:00,
2013-08-23 15:31:00,82.3,68.0,29.97,NE,43,2.0,4.0,62,0.00,,---,1.92,849.00,VWS V14.01,2013-08-23 19:31:00,
2013-08-23 15:35:00,82.6,67.3,29.97,ENE,66,1.0,5.0,60,0.00,,---,1.92,831.00,VWS V14.01,2013-08-23 19:35:00,
2013-08-23 15:36:00,82.6,66.8,29.97,ENE,78,1.0,5.0,59,0.00,,---,1.92,817.00,VWS V14.01,2013-08-23 19:36:00,
2013-08-23 15:40:00,82.8,67.5,29.97,NE,49,1.0,6.0,60,0.00,,---,1.92,817.00,VWS V14.01,2013-08-23 19:40:00,
2013-08-23 15:41:00,82.9,67.1,29.96,NNE,31,1.0,3.0,59,0.00,,---,1.92,805.00,VWS V14.01,2013-08-23 19:41:00,
2013-08-23 15:45:00,83.1,65.8,29.97,North,355,1.0,5.0,56,0.00,,---,1.92,803.00,VWS V14.01,2013-08-23 19:45:00,
2013-08-23 15:46:00,83.2,65.4,29.97,NNE,13,0.0,2.0,55,0.00,,---,1.92,807.00,VWS V14.01,2013-08-23 19:46:00,
2013-08-23 15:50:00,83.4,66.6,29.97,NNE,17,2.0,3.0,57,0.00,,---,1.92,780.00,VWS V14.01,2013-08-23 19:50:00,
2013-08-23 15:51:00,83.5,67.2,29.97,NE,39,1.0,4.0,58,0.00,,---,1.92,770.00,VWS V14.01,2013-08-23 19:51:00,
2013-08-23 15:55:00,83.8,67.0,29.97,NNE,19,3.0,4.0,57,0.00,,---,1.92,765.00,VWS V14.01,2013-08-23 19:55:00,
2013-08-23 15:56:00,83.8,65.9,29.97,NNW,344,5.0,9.0,55,0.00,,---,1.92,766.00,VWS V14.01,2013-08-23 19:56:00,
2013-08-23 16:00:00,83.7,66.3,29.96,East,82,1.0,9.0,56,0.00,,---,1.92,758.00,VWS V14.01,2013-08-23 20:00:00,
2013-08-23 16:01:00,83.6,66.8,29.96,NNE,14,5.0,5.0,57,0.00,,---,1.92,752.00,VWS V14.01,2013-08-23 20:01:00,
2013-08-23 16:05:00,83.5,65.7,29.96,NE,40,1.0,5.0,55,0.00,,---,1.92,742.00,VWS V14.01,2013-08-23 20:05:00,
2013-08-23 16:06:00,83.6,66.8,29.96,NE,44,1.0,3.0,57,0.00,,---,1.92,737.00,VWS V14.01,2013-08-23 20:06:00,
2013-08-23 16:10:00,83.6,66.3,29.96,ENE,78,2.0,4.0,56,0.00,,---,1.92,737.00,VWS V14.01,2013-08-23 20:10:00,
2013-08-23 16:11:00,83.5,66.2,29.96,ENE,75,3.0,6.0,56,0.00,,---,1.92,742.00,VWS V14.01,2013-08-23 20:11:00,
2013-08-23 16:15:00,83.4,66.6,29.96,East,87,4.0,6.0,57,0.00,,---,1.92,731.00,VWS V14.01,2013-08-23 20:15:00,
2013-08-23 16:16:00,83.4,67.1,29.96,East,86,2.0,4.0,58,0.00,,---,1.92,712.00,VWS V14.01,2013-08-23 20:16:00,
2013-08-23 16:20:00,83.3,67.0,29.96,North,355,4.0,4.0,58,0.00,,---,1.92,703.00,VWS V14.01,2013-08-23 20:20:00,
2013-08-23 16:21:00,83.4,68.6,29.96,NNW,343,5.0,5.0,61,0.00,,---,1.92,705.00,VWS V14.01,2013-08-23 20:21:00,
2013-08-23 16:25:00,83.3,67.0,29.96,North,5,2.0,7.0,58,0.00,,---,1.92,707.00,VWS V14.01,2013-08-23 20:25:00,
2013-08-23 16:26:00,83.2,67.4,29.96,NNW,344,0.0,6.0,59,0.00,,---,1.92,694.00,VWS V14.01,2013-08-23 20:26:00,
2013-08-23 16:30:00,83.2,66.4,29.96,North,5,1.0,6.0,57,0.00,,---,1.92,686.00,VWS V14.01,2013-08-23 20:30:00,
2013-08-23 16:31:00,83.2,66.9,29.95,North,355,2.0,3.0,58,0.00,,---,1.92,677.00,VWS V14.01,2013-08-23 20:31:00,
2013-08-23 16:35:00,83.2,66.9,29.95,NNW,347,1.0,4.0,58,0.00,,---,1.92,663.00,VWS V14.01,2013-08-23 20:35:00,
2013-08-23 16:36:00,83.3,67.0,29.95,North,360,2.0,3.0,58,0.00,,---,1.92,656.00,VWS V14.01,2013-08-23 20:36:00,
2013-08-23 16:40:00,83.4,66.1,29.95,North,9,0.0,4.0,56,0.00,,---,1.92,657.00,VWS V14.01,2013-08-23 20:40:00,
2013-08-23 16:41:00,83.4,66.6,29.95,NNE,22,2.0,2.0,57,0.00,,---,1.92,652.00,VWS V14.01,2013-08-23 20:41:00,
2013-08-23 16:45:00,83.5,66.7,29.95,NE,41,0.0,4.0,57,0.00,,---,1.92,661.00,VWS V14.01,2013-08-23 20:45:00,
2013-08-23 16:47:00,83.6,66.8,29.95,NE,40,4.0,4.0,57,0.00,,---,1.92,578.00,VWS V14.01,2013-08-23 20:47:00,
2013-08-23 16:50:00,83.5,65.1,29.95,NNE,31,2.0,5.0,54,0.00,,---,1.92,591.00,VWS V14.01,2013-08-23 20:50:00,
2013-08-23 16:52:00,83.4,64.5,29.95,NE,42,2.0,5.0,53,0.00,,---,1.92,591.00,VWS V14.01,2013-08-23 20:52:00,
2013-08-23 16:55:00,83.1,63.7,29.95,NE,45,1.0,5.0,52,0.00,,---,1.92,591.00,VWS V14.01,2013-08-23 20:55:00,
2013-08-23 16:57:00,83.0,64.1,29.95,NE,44,2.0,4.0,53,0.00,,---,1.92,643.00,VWS V14.01,2013-08-23 20:57:00,
2013-08-23 17:00:00,83.0,64.1,29.96,NE,46,2.0,4.0,53,0.00,,---,1.92,626.00,VWS V14.01,2013-08-23 21:00:00,
2013-08-23 17:02:00,83.1,65.8,29.95,NE,46,0.0,2.0,56,0.00,,---,1.92,536.00,VWS V14.01,2013-08-23 21:02:00,
2013-08-23 17:05:00,83.2,65.4,29.95,NE,46,1.0,2.0,55,0.00,,---,1.92,178.00,VWS V14.01,2013-08-23 21:05:00,
2013-08-23 17:07:00,83.2,65.9,29.95,NE,46,1.0,1.0,56,0.00,,---,1.92,244.00,VWS V14.01,2013-08-23 21:07:00,
2013-08-23 17:10:00,83.1,65.8,29.95,NE,49,1.0,3.0,56,0.00,,---,1.92,139.00,VWS V14.01,2013-08-23 21:10:00,
2013-08-23 17:12:00,82.9,67.1,29.95,NE,49,2.0,2.0,59,0.00,,---,1.92,171.00,VWS V14.01,2013-08-23 21:12:00,
2013-08-23 17:15:00,82.9,68.1,29.95,NE,49,1.0,2.0,61,0.00,,---,1.92,594.00,VWS V14.01,2013-08-23 21:15:00,
2013-08-23 17:17:00,83.1,67.8,29.95,NE,48,0.0,1.0,60,0.00,,---,1.92,608.00,VWS V14.01,2013-08-23 21:17:00,
2013-08-23 17:20:00,83.4,66.6,29.95,NE,46,0.0,3.0,57,0.00,,---,1.92,605.00,VWS V14.01,2013-08-23 21:20:00,
2013-08-23 17:22:00,83.6,66.8,29.95,NNE,32,1.0,4.0,57,0.00,,---,1.92,596.00,VWS V14.01,2013-08-23 21:22:00,
2013-08-23 17:25:00,83.8,64.3,29.95,North,355,2.0,5.0,52,0.00,,---,1.92,612.00,VWS V14.01,2013-08-23 21:25:00,
2013-08-23 17:27:00,84.0,65.6,29.95,North,9,0.0,5.0,54,0.00,,---,1.92,633.00,VWS V14.01,2013-08-23 21:27:00,
2013-08-23 17:30:00,84.1,66.7,29.95,NE,52,5.0,6.0,56,0.00,,---,1.92,640.00,VWS V14.01,2013-08-23 21:30:00,
2013-08-23 17:32:00,84.1,67.2,29.95,NE,38,3.0,6.0,57,0.00,,---,1.92,624.00,VWS V14.01,2013-08-23 21:32:00,
2013-08-23 17:35:00,83.9,67.1,29.95,North,355,4.0,7.0,57,0.00,,---,1.92,550.00,VWS V14.01,2013-08-23 21:35:00,
2013-08-23 17:37:00,83.6,67.3,29.95,NE,53,4.0,7.0,58,0.00,,---,1.92,545.00,VWS V14.01,2013-08-23 21:37:00,
2013-08-23 17:40:00,83.4,67.1,29.95,NNE,32,3.0,7.0,58,0.00,,---,1.92,522.00,VWS V14.01,2013-08-23 21:40:00,
2013-08-23 17:42:00,83.0,66.7,29.95,NE,44,2.0,5.0,58,0.00,,---,1.92,512.00,VWS V14.01,2013-08-23 21:42:00,
2013-08-23 17:45:00,82.6,67.3,29.95,NE,45,3.0,5.0,60,0.00,,---,1.92,137.00,VWS V14.01,2013-08-23 21:45:00,
2013-08-23 17:47:00,82.2,67.4,29.95,NE,43,0.0,3.0,61,0.00,,---,1.92,128.00,VWS V14.01,2013-08-23 21:47:00,
2013-08-23 17:50:00,81.8,67.5,29.95,NE,44,0.0,4.0,62,0.00,,---,1.92,109.00,VWS V14.01,2013-08-23 21:50:00,
2013-08-23 17:52:00,81.5,67.2,29.95,NE,44,0.0,2.0,62,0.00,,---,1.92,102.00,VWS V14.01,2013-08-23 21:52:00,
2013-08-23 17:55:00,81.4,67.6,29.95,NE,42,1.0,2.0,63,0.00,,---,1.92,415.00,VWS V14.01,2013-08-23 21:55:00,
2013-08-23 17:57:00,81.3,68.0,29.95,NE,48,2.0,2.0,64,0.00,,---,1.92,408.00,VWS V14.01,2013-08-23 21:57:00,
2013-08-23 18:00:00,81.3,67.5,29.95,ENE,57,1.0,3.0,63,0.00,,---,1.92,397.00,VWS V14.01,2013-08-23 22:00:00,
2013-08-23 18:02:00,81.2,67.4,29.95,NE,34,2.0,4.0,63,0.00,,---,1.92,388.00,VWS V14.01,2013-08-23 22:02:00,
2013-08-23 18:05:00,81.2,67.9,29.95,NNE,30,3.0,4.0,64,0.00,,---,1.92,383.00,VWS V14.01,2013-08-23 22:05:00,
2013-08-23 18:07:00,81.3,67.5,29.95,NE,37,3.0,4.0,63,0.00,,---,1.92,387.00,VWS V14.01,2013-08-23 22:07:00,
2013-08-23 18:10:00,81.3,67.1,29.96,NE,37,0.0,4.0,62,0.00,,---,1.92,353.00,VWS V14.01,2013-08-23 22:10:00,
2013-08-23 18:12:00,81.4,68.1,29.95,NE,37,0.0,1.0,64,0.00,,---,1.92,102.00,VWS V14.01,2013-08-23 22:12:00,
2013-08-23 18:15:00,81.5,67.7,29.95,NE,35,1.0,2.0,63,0.00,,---,1.92,107.00,VWS V14.01,2013-08-23 22:15:00,
2013-08-23 18:17:00,81.6,67.8,29.95,NE,35,0.0,1.0,63,0.00,,---,1.92,127.00,VWS V14.01,2013-08-23 22:17:00,
2013-08-23 18:20:00,81.6,67.8,29.96,NE,35,1.0,1.0,63,0.00,,---,1.92,207.00,VWS V14.01,2013-08-23 22:20:00,
2013-08-23 18:22:00,81.5,67.7,29.96,NE,44,2.0,5.0,63,0.00,,---,1.92,287.00,VWS V14.01,2013-08-23 22:22:00,
2013-08-23 18:25:00,81.4,67.6,29.96,NE,48,3.0,5.0,63,0.00,,---,1.92,125.00,VWS V14.01,2013-08-23 22:25:00,
2013-08-23 18:27:00,81.1,67.8,29.97,NE,43,0.0,4.0,64,0.00,,---,1.92,121.00,VWS V14.01,2013-08-23 22:27:00,
2013-08-23 18:30:00,80.8,67.5,29.96,NE,40,1.0,4.0,64,0.00,,---,1.92,265.00,VWS V14.01,2013-08-23 22:30:00,
2013-08-23 18:32:00,80.5,67.2,29.96,NE,44,2.0,4.0,64,0.00,,---,1.92,105.00,VWS V14.01,2013-08-23 22:32:00,
2013-08-23 18:35:00,80.3,67.0,29.96,NE,36,4.0,5.0,64,0.00,,---,1.92,102.00,VWS V14.01,2013-08-23 22:35:00,
2013-08-23 18:37:00,79.9,66.2,29.96,NNE,32,3.0,6.0,63,0.00,,---,1.92,104.00,VWS V14.01,2013-08-23 22:37:00,
2013-08-23 18:40:00,79.6,66.4,29.96,NE,45,4.0,6.0,64,0.00,,---,1.92,278.00,VWS V14.01,2013-08-23 22:40:00,
2013-08-23 18:42:00,79.4,66.6,29.97,NE,47,0.0,5.0,65,0.00,,---,1.92,287.00,VWS V14.01,2013-08-23 22:42:00,
2013-08-23 18:45:00,79.3,67.0,29.97,NE,44,0.0,5.0,66,0.00,,---,1.92,288.00,VWS V14.01,2013-08-23 22:45:00,
2013-08-23 18:47:00,79.3,66.5,29.96,NE,38,1.0,5.0,65,0.00,,---,1.92,288.00,VWS V14.01,2013-08-23 22:47:00,
2013-08-23 18:50:00,79.3,67.0,29.97,NE,42,2.0,5.0,66,0.00,,---,1.92,281.00,VWS V14.01,2013-08-23 22:50:00,
2013-08-23 18:52:00,79.3,67.4,29.96,NE,53,0.0,3.0,67,0.00,,---,1.92,250.00,VWS V14.01,2013-08-23 22:52:00,
2013-08-23 18:55:00,79.3,67.0,29.96,NE,50,2.0,5.0,66,0.00,,---,1.92,209.00,VWS V14.01,2013-08-23 22:55:00,
2013-08-23 18:57:00,79.4,67.1,29.96,ENE,62,2.0,3.0,66,0.00,,---,1.92,265.00,VWS V14.01,2013-08-23 22:57:00,
2013-08-23 19:00:00,79.4,67.5,29.96,ENE,60,2.0,3.0,67,0.00,,---,1.92,258.00,VWS V14.01,2013-08-23 23:00:00,
2013-08-23 19:02:00,79.5,67.6,29.97,NE,46,3.0,5.0,67,0.00,,---,1.92,244.00,VWS V14.01,2013-08-23 23:02:00,
2013-08-23 19:05:00,79.5,67.2,29.97,NE,40,3.0,5.0,66,0.00,,---,1.92,232.00,VWS V14.01,2013-08-23 23:05:00,
2013-08-23 19:07:00,79.5,68.0,29.97,NE,44,0.0,4.0,68,0.00,,---,1.92,209.00,VWS V14.01,2013-08-23 23:07:00,
2013-08-23 19:10:00,79.6,68.1,29.97,NE,42,0.0,4.0,68,0.00,,---,1.92,171.00,VWS V14.01,2013-08-23 23:10:00,
2013-08-23 19:12:00,79.6,68.1,29.97,NE,42,2.0,4.0,68,0.00,,---,1.92,155.00,VWS V14.01,2013-08-23 23:12:00,
2013-08-23 19:15:00,79.5,67.2,29.97,NE,42,0.0,5.0,66,0.00,,---,1.92,139.00,VWS V14.01,2013-08-23 23:15:00,
2013-08-23 19:17:00,79.4,67.1,29.97,NE,44,1.0,4.0,66,0.00,,---,1.92,86.00,VWS V14.01,2013-08-23 23:17:00,
2013-08-23 19:20:00,79.3,67.4,29.97,ENE,66,3.0,5.0,67,0.00,,---,1.92,121.00,VWS V14.01,2013-08-23 23:20:00,
2013-08-23 19:23:00,79.1,66.8,29.97,NE,52,4.0,7.0,66,0.00,,---,1.92,77.00,VWS V14.01,2013-08-23 23:23:00,
2013-08-23 19:25:00,78.9,67.0,29.97,NE,42,1.0,7.0,67,0.00,,---,1.92,77.00,VWS V14.01,2013-08-23 23:25:00,
2013-08-23 19:28:00,78.7,66.8,29.98,NE,49,4.0,5.0,67,0.00,,---,1.92,98.00,VWS V14.01,2013-08-23 23:28:00,
2013-08-23 19:30:00,78.5,67.1,29.98,NE,36,3.0,5.0,68,0.00,,---,1.92,95.00,VWS V14.01,2013-08-23 23:30:00,
2013-08-23 19:33:00,78.3,66.9,29.98,NE,36,0.0,4.0,68,0.00,,---,1.92,83.00,VWS V14.01,2013-08-23 23:33:00,
2013-08-23 19:35:00,78.2,67.2,29.98,NE,36,0.0,4.0,69,0.00,,---,1.92,79.00,VWS V14.01,2013-08-23 23:35:00,
2013-08-23 19:38:00,78.1,67.1,29.98,North,5,0.0,3.0,69,0.00,,---,1.92,83.00,VWS V14.01,2013-08-23 23:38:00,
2013-08-23 19:40:00,78.0,67.4,29.98,NE,38,3.0,5.0,70,0.00,,---,1.92,79.00,VWS V14.01,2013-08-23 23:40:00,
2013-08-23 19:43:00,77.9,66.9,29.98,NNE,32,2.0,6.0,69,0.00,,---,1.92,70.00,VWS V14.01,2013-08-23 23:43:00,
2013-08-23 19:45:00,77.8,66.8,29.99,NNE,33,0.0,6.0,69,0.00,,---,1.92,69.00,VWS V14.01,2013-08-23 23:45:00,
2013-08-23 19:48:00,77.7,66.3,29.99,NNE,32,1.0,2.0,68,0.00,,---,1.92,62.00,VWS V14.01,2013-08-23 23:48:00,
2013-08-23 19:50:00,77.6,66.6,29.99,NNE,33,0.0,2.0,69,0.00,,---,1.92,53.00,VWS V14.01,2013-08-23 23:50:00,
2013-08-23 19:53:00,77.5,66.1,29.99,NNE,33,0.0,3.0,68,0.00,,---,1.92,46.00,VWS V14.01,2013-08-23 23:53:00,
2013-08-23 19:55:00,77.4,66.0,29.99,NE,34,1.0,3.0,68,0.00,,---,1.92,39.00,VWS V14.01,2013-08-23 23:55:00,
2013-08-23 19:58:00,77.2,65.8,29.99,NE,39,1.0,4.0,68,0.00,,---,1.92,33.00,VWS V14.01,2013-08-23 23:58:00,
2013-08-23 20:00:00,77.1,65.7,29.99,NE,38,3.0,4.0,68,0.00,,---,1.92,28.00,VWS V14.01,2013-08-24 00:00:00,
2013-08-23 20:03:00,76.9,66.0,29.99,NE,36,2.0,4.0,69,0.00,,---,1.92,19.00,VWS V14.01,2013-08-24 00:03:00,
2013-08-23 20:05:00,76.7,65.8,29.99,NE,37,1.0,4.0,69,0.00,,---,1.92,14.00,VWS V14.01,2013-08-24 00:05:00,
2013-08-23 20:08:00,76.5,65.6,29.99,NE,44,1.0,3.0,69,0.00,,---,1.92,9.00,VWS V14.01,2013-08-24 00:08:00,
2013-08-23 20:10:00,76.4,65.5,30.00,NE,41,0.0,4.0,69,0.00,,---,1.92,7.00,VWS V14.01,2013-08-24 00:10:00,
2013-08-23 20:13:00,76.1,65.2,29.99,NE,49,1.0,4.0,69,0.00,,---,1.92,5.00,VWS V14.01,2013-08-24 00:13:00,
2013-08-23 20:15:00,76.0,65.1,30.00,NE,49,0.0,4.0,69,0.00,,---,1.92,0.00,VWS V14.01,2013-08-24 00:15:00,
2013-08-23 20:18:00,75.7,64.8,30.00,NE,39,1.0,4.0,69,0.00,,---,1.92,0.00,VWS V14.01,2013-08-24 00:18:00,
2013-08-23 20:20:00,75.6,64.7,30.00,ENE,67,4.0,4.0,69,0.00,,---,1.92,0.00,VWS V14.01,2013-08-24 00:20:00,
2013-08-23 20:23:00,75.3,64.4,30.00,NE,49,1.0,6.0,69,0.00,,---,1.92,0.00,VWS V14.01,2013-08-24 00:23:00,
2013-08-23 20:25:00,75.2,64.3,30.00,NE,40,1.0,6.0,69,0.00,,---,1.92,0.00,VWS V14.01,2013-08-24 00:25:00,
2013-08-23 20:28:00,75.0,64.6,30.00,NE,39,2.0,5.0,70,0.00,,---,1.92,0.00,VWS V14.01,2013-08-24 00:28:00,
2013-08-23 20:30:00,74.9,64.5,30.00,NNE,19,0.0,5.0,70,0.00,,---,1.92,0.00,VWS V14.01,2013-08-24 00:30:00,
2013-08-23 20:33:00,74.7,64.3,30.01,NNE,19,1.0,1.0,70,0.00,,---,1.92,0.00,VWS V14.01,2013-08-24 00:33:00,
2013-08-23 20:35:00,74.6,64.2,30.00,NNE,20,1.0,2.0,70,0.00,,---,1.92,0.00,VWS V14.01,2013-08-24 00:35:00,
2013-08-23 20:38:00,74.3,63.9,30.00,NE,36,2.0,4.0,70,0.00,,---,1.92,0.00,VWS V14.01,2013-08-24 00:38:00,
2013-08-23 20:40:00,74.2,63.8,30.01,NE,41,0.0,4.0,70,0.00,,---,1.92,0.00,VWS V14.01,2013-08-24 00:40:00,
2013-08-23 20:43:00,73.9,63.9,30.01,NE,42,0.0,2.0,71,0.00,,---,1.92,0.00,VWS V14.01,2013-08-24 00:43:00,
2013-08-23 20:45:00,73.9,63.9,30.01,NE,42,0.0,2.0,71,0.00,,---,1.92,0.00,VWS V14.01,2013-08-24 00:45:00,
2013-08-23 20:48:00,73.7,63.7,30.01,NE,42,0.0,1.0,71,0.00,,---,1.92,0.00,VWS V14.01,2013-08-24 00:48:00,
2013-08-23 20:50:00,73.6,64.0,30.01,NE,42,0.0,1.0,72,0.00,,---,1.92,0.00,VWS V14.01,2013-08-24 00:50:00,
2013-08-23 20:53:00,73.4,63.8,30.01,ENE,57,0.0,3.0,72,0.00,,---,1.92,0.00,VWS V14.01,2013-08-24 00:53:00,
2013-08-23 20:55:00,73.3,63.7,30.02,NE,55,1.0,3.0,72,0.00,,---,1.92,0.00,VWS V14.01,2013-08-24 00:55:00,
2013-08-23 20:58:00,73.1,63.5,30.02,NE,51,1.0,3.0,72,0.00,,---,1.92,0.00,VWS V14.01,2013-08-24 00:58:00,
2013-08-23 21:00:00,73.0,63.5,30.02,NE,51,0.0,3.0,72,0.00,,---,1.92,0.00,VWS V14.01,2013-08-24 01:00:00,
2013-08-23 21:03:00,72.8,63.3,30.02,NE,52,0.0,1.0,72,0.00,,---,1.92,0.00,VWS V14.01,2013-08-24 01:03:00,
2013-08-23 21:05:00,72.7,63.2,30.02,NE,52,1.0,1.0,72,0.00,,---,1.92,0.00,VWS V14.01,2013-08-24 01:05:00,
2013-08-23 21:08:00,72.5,63.4,30.02,NE,52,0.0,1.0,73,0.00,,---,1.92,0.00,VWS V14.01,2013-08-24 01:08:00,
2013-08-23 21:10:00,72.4,63.3,30.03,NE,52,0.0,2.0,73,0.00,,---,1.92,0.00,VWS V14.01,2013-08-24 01:10:00,
2013-08-23 21:13:00,72.3,63.2,30.03,NE,52,0.0,1.0,73,0.00,,---,1.92,0.00,VWS V14.01,2013-08-24 01:13:00,
2013-08-23 21:15:00,72.2,63.1,30.03,NE,52,0.0,1.0,73,0.00,,---,1.92,0.00,VWS V14.01,2013-08-24 01:15:00,
2013-08-23 21:18:00,72.0,62.9,30.03,NE,55,0.0,3.0,73,0.00,,---,1.92,0.00,VWS V14.01,2013-08-24 01:18:00,
2013-08-23 21:20:00,72.0,62.9,30.03,NE,55,0.0,3.0,73,0.00,,---,1.92,0.00,VWS V14.01,2013-08-24 01:20:00,
2013-08-23 21:23:00,71.8,63.1,30.03,NE,55,0.0,0.0,74,0.00,,---,1.92,0.00,VWS V14.01,2013-08-24 01:23:00,
2013-08-23 21:25:00,71.8,63.1,30.03,NE,55,0.0,2.0,74,0.00,,---,1.92,0.00,VWS V14.01,2013-08-24 01:25:00,
2013-08-23 21:28:00,71.7,63.0,30.03,NE,55,0.0,0.0,74,0.00,,---,1.92,0.00,VWS V14.01,2013-08-24 01:28:00,
2013-08-23 21:30:00,71.6,62.9,30.03,NE,55,0.0,0.0,74,0.00,,---,1.92,0.00,VWS V14.01,2013-08-24 01:30:00,
2013-08-23 21:33:00,71.5,62.8,30.04,NE,55,0.0,1.0,74,0.00,,---,1.92,0.00,VWS V14.01,2013-08-24 01:33:00,
2013-08-23 21:35:00,71.5,62.8,30.04,NE,55,0.0,1.0,74,0.00,,---,1.92,0.00,VWS V14.01,2013-08-24 01:35:00,
2013-08-23 21:38:00,71.3,62.6,30.04,NE,55,0.0,1.0,74,0.00,,---,1.92,0.00,VWS V14.01,2013-08-24 01:38:00,
2013-08-23 21:40:00,71.2,62.5,30.04,NE,55,0.0,1.0,74,0.00,,---,1.92,0.00,VWS V14.01,2013-08-24 01:40:00,
2013-08-23 21:43:00,71.1,62.4,30.04,NE,55,0.0,1.0,74,0.00,,---,1.92,0.00,VWS V14.01,2013-08-24 01:43:00,
2013-08-23 21:45:00,71.0,62.3,30.04,NE,55,0.0,1.0,74,0.00,,---,1.92,0.00,VWS V14.01,2013-08-24 01:45:00,
2013-08-23 21:48:00,70.8,62.5,30.04,NE,55,0.0,0.0,75,0.00,,---,1.92,0.00,VWS V14.01,2013-08-24 01:48:00,
2013-08-23 21:50:00,70.8,62.5,30.04,NE,55,0.0,0.0,75,0.00,,---,1.92,0.00,VWS V14.01,2013-08-24 01:50:00,
2013-08-23 21:53:00,70.6,61.9,30.04,NE,55,0.0,0.0,74,0.00,,---,1.92,0.00,VWS V14.01,2013-08-24 01:53:00,
2013-08-23 21:55:00,70.5,61.8,30.04,NE,55,0.0,0.0,74,0.00,,---,1.92,0.00,VWS V14.01,2013-08-24 01:55:00,
2013-08-23 21:58:00,70.4,61.7,30.04,NE,55,0.0,0.0,74,0.00,,---,1.92,0.00,VWS V14.01,2013-08-24 01:58:00,
2013-08-23 22:00:00,70.3,61.6,30.05,NE,55,0.0,0.0,74,0.00,,---,1.92,0.00,VWS V14.01,2013-08-24 02:00:00,
2013-08-23 22:03:00,70.2,61.5,30.04,NE,55,0.0,0.0,74,0.00,,---,1.92,0.00,VWS V14.01,2013-08-24 02:03:00,
2013-08-23 22:05:00,70.1,61.4,30.04,NE,55,0.0,0.0,74,0.00,,---,1.92,0.00,VWS V14.01,2013-08-24 02:05:00,
2013-08-23 22:08:00,70.0,61.3,30.04,NE,55,0.0,0.0,74,0.00,,---,1.92,0.00,VWS V14.01,2013-08-24 02:08:00,
2013-08-23 22:10:00,70.0,61.3,30.04,NE,55,0.0,0.0,74,0.00,,---,1.92,0.00,VWS V14.01,2013-08-24 02:10:00,
2013-08-23 22:13:00,69.8,61.2,30.04,NE,55,0.0,2.0,74,0.00,,---,1.92,0.00,VWS V14.01,2013-08-24 02:13:00,
2013-08-23 22:15:00,69.8,61.2,30.04,NE,55,0.0,2.0,74,0.00,,---,1.92,0.00,VWS V14.01,2013-08-24 02:15:00,
2013-08-23 22:18:00,69.7,61.0,30.04,NE,55,0.0,1.0,74,0.00,,---,1.92,0.00,VWS V14.01,2013-08-24 02:18:00,
2013-08-23 22:20:00,69.6,61.0,30.04,NE,55,0.0,1.0,74,0.00,,---,1.92,0.00,VWS V14.01,2013-08-24 02:20:00,
2013-08-23 22:23:00,69.5,60.9,30.04,NE,55,0.0,1.0,74,0.00,,---,1.92,0.00,VWS V14.01,2013-08-24 02:23:00,
2013-08-23 22:25:00,69.4,60.8,30.05,NE,55,0.0,1.0,74,0.00,,---,1.92,0.00,VWS V14.01,2013-08-24 02:25:00,
2013-08-23 22:28:00,69.3,60.7,30.04,NE,55,0.0,1.0,74,0.00,,---,1.92,0.00,VWS V14.01,2013-08-24 02:28:00,
2013-08-23 22:30:00,69.2,60.6,30.04,NE,55,0.0,1.0,74,0.00,,---,1.92,0.00,VWS V14.01,2013-08-24 02:30:00,
2013-08-23 22:33:00,69.1,60.5,30.05,NE,55,0.0,1.0,74,0.00,,---,1.92,0.00,VWS V14.01,2013-08-24 02:33:00,
2013-08-23 22:35:00,69.0,60.4,30.05,NE,55,0.0,1.0,74,0.00,,---,1.92,0.00,VWS V14.01,2013-08-24 02:35:00,
2013-08-23 22:38:00,68.9,60.3,30.05,NE,56,0.0,1.0,74,0.00,,---,1.92,0.00,VWS V14.01,2013-08-24 02:38:00,
2013-08-23 22:40:00,68.8,60.2,30.05,NE,56,0.0,1.0,74,0.00,,---,1.92,0.00,VWS V14.01,2013-08-24 02:40:00,
2013-08-23 22:43:00,68.7,59.7,30.05,NE,56,0.0,1.0,73,0.00,,---,1.92,0.00,VWS V14.01,2013-08-24 02:43:00,
2013-08-23 22:45:00,68.7,60.1,30.05,NE,56,0.0,1.0,74,0.00,,---,1.92,0.00,VWS V14.01,2013-08-24 02:45:00,
2013-08-23 22:48:00,68.6,59.6,30.05,NE,56,0.0,1.0,73,0.00,,---,1.92,0.00,VWS V14.01,2013-08-24 02:48:00,
2013-08-23 22:50:00,68.6,59.6,30.05,NE,56,0.0,1.0,73,0.00,,---,1.92,0.00,VWS V14.01,2013-08-24 02:50:00,
2013-08-23 22:53:00,68.5,59.9,30.05,NE,56,0.0,0.0,74,0.00,,---,1.92,0.00,VWS V14.01,2013-08-24 02:53:00,
2013-08-23 22:55:00,68.4,59.8,30.05,NE,56,0.0,0.0,74,0.00,,---,1.92,0.00,VWS V14.01,2013-08-24 02:55:00,
2013-08-23 22:58:00,68.4,59.8,30.06,NE,56,0.0,0.0,74,0.00,,---,1.92,0.00,VWS V14.01,2013-08-24 02:58:00,
2013-08-23 23:00:00,68.3,59.7,30.06,NE,56,0.0,0.0,74,0.00,,---,1.92,0.00,VWS V14.01,2013-08-24 03:00:00,
2013-08-23 23:03:00,68.2,59.6,30.05,NE,56,0.0,0.0,74,0.00,,---,1.92,0.00,VWS V14.01,2013-08-24 03:03:00,
2013-08-23 23:05:00,68.1,59.5,30.05,NE,56,0.0,0.0,74,0.00,,---,1.92,0.00,VWS V14.01,2013-08-24 03:05:00,
2013-08-23 23:08:00,68.0,59.4,30.06,NE,56,0.0,1.0,74,0.00,,---,1.92,0.00,VWS V14.01,2013-08-24 03:08:00,
2013-08-23 23:10:00,67.9,59.3,30.06,NE,56,0.0,1.0,74,0.00,,---,1.92,0.00,VWS V14.01,2013-08-24 03:10:00,
2013-08-23 23:13:00,67.8,59.2,30.06,NE,56,0.0,1.0,74,0.00,,---,1.92,0.00,VWS V14.01,2013-08-24 03:13:00,
2013-08-23 23:15:00,67.7,59.1,30.06,NE,56,0.0,1.0,74,0.00,,---,1.92,0.00,VWS V14.01,2013-08-24 03:15:00,
2013-08-23 23:18:00,67.6,59.0,30.06,NE,56,0.0,1.0,74,0.00,,---,1.92,0.00,VWS V14.01,2013-08-24 03:18:00,
2013-08-23 23:20:00,67.5,58.9,30.06,NE,56,0.0,1.0,74,0.00,,---,1.92,0.00,VWS V14.01,2013-08-24 03:20:00,
2013-08-23 23:23:00,67.4,58.8,30.06,NE,56,0.0,1.0,74,0.00,,---,1.92,0.00,VWS V14.01,2013-08-24 03:23:00,
2013-08-23 23:25:00,67.4,59.2,30.06,NE,56,0.0,1.0,75,0.00,,---,1.92,0.00,VWS V14.01,2013-08-24 03:25:00,
2013-08-23 23:28:00,67.2,59.0,30.06,NE,56,0.0,1.0,75,0.00,,---,1.92,0.00,VWS V14.01,2013-08-24 03:28:00,
2013-08-23 23:30:00,67.2,59.0,30.06,NE,56,1.0,1.0,75,0.00,,---,1.92,0.00,VWS V14.01,2013-08-24 03:30:00,
2013-08-23 23:33:00,67.1,58.9,30.06,NE,56,0.0,2.0,75,0.00,,---,1.92,0.00,VWS V14.01,2013-08-24 03:33:00,
2013-08-23 23:35:00,67.1,58.9,30.06,NE,56,0.0,2.0,75,0.00,,---,1.92,0.00,VWS V14.01,2013-08-24 03:35:00,
2013-08-23 23:38:00,67.0,58.8,30.07,NE,56,0.0,2.0,75,0.00,,---,1.92,0.00,VWS V14.01,2013-08-24 03:38:00,
2013-08-23 23:40:00,67.0,58.8,30.07,NE,56,0.0,2.0,75,0.00,,---,1.92,0.00,VWS V14.01,2013-08-24 03:40:00,
2013-08-23 23:43:00,67.0,58.8,30.07,NE,56,0.0,1.0,75,0.00,,---,1.92,0.00,VWS V14.01,2013-08-24 03:43:00,
2013-08-23 23:45:00,66.9,58.7,30.07,NE,56,0.0,1.0,75,0.00,,---,1.92,0.00,VWS V14.01,2013-08-24 03:45:00,
2013-08-23 23:49:00,66.9,59.1,30.07,NE,56,0.0,0.0,76,0.00,,---,1.92,0.00,VWS V14.01,2013-08-24 03:49:00,
2013-08-23 23:50:00,66.9,59.1,30.07,NE,56,0.0,0.0,76,0.00,,---,1.92,0.00,VWS V14.01,2013-08-24 03:50:00,
2013-08-23 23:54:00,66.8,59.0,30.07,NE,56,0.0,0.0,76,0.00,,---,1.92,0.00,VWS V14.01,2013-08-24 03:54:00,
2013-08-23 23:55:00,66.8,59.0,30.07,NE,56,0.0,0.0,76,0.00,,---,1.92,0.00,VWS V14.01,2013-08-24 03:55:00,
2013-08-23 23:59:00,66.7,59.3,30.07,NE,55,0.0,0.0,77,0.00,,---,1.92,0.00,VWS V14.01,2013-08-24 03:59:00,